sensor_id;sensor_type;location;lat;lon;timestamp;P1;durP1;ratioP1;P2;durP2;ratioP2
69979;SDS011;57318;56.232;43.944;2023-07-29T00:01:03;9.75;;;6.07;;
69979;SDS011;57318;56.232;43.944;2023-07-29T00:03:28;7.90;;;6.00;;
69979;SDS011;57318;56.232;43.944;2023-07-29T00:05:56;8.35;;;5.70;;
69979;SDS011;57318;56.232;43.944;2023-07-29T00:08:21;10.60;;;6.15;;
69979;SDS011;57318;56.232;43.944;2023-07-29T00:10:49;8.43;;;6.43;;
69979;SDS011;57318;56.232;43.944;2023-07-29T00:13:15;8.10;;;6.10;;
69979;SDS011;57318;56.232;43.944;2023-07-29T00:15:41;8.60;;;6.35;;
69979;SDS011;57318;56.232;43.944;2023-07-29T00:18:06;8.57;;;6.77;;
69979;SDS011;57318;56.232;43.944;2023-07-29T00:20:32;10.40;;;6.17;;
69979;SDS011;57318;56.232;43.944;2023-07-29T00:22:58;9.48;;;6.70;;
69979;SDS011;57318;56.232;43.944;2023-07-29T00:25:24;10.02;;;7.10;;
69979;SDS011;57318;56.232;43.944;2023-07-29T00:27:50;10.90;;;6.15;;
69979;SDS011;57318;56.232;43.944;2023-07-29T00:30:15;9.65;;;6.10;;
69979;SDS011;57318;56.232;43.944;2023-07-29T00:32:41;9.82;;;6.78;;
69979;SDS011;57318;56.232;43.944;2023-07-29T00:35:07;8.63;;;6.03;;
69979;SDS011;57318;56.232;43.944;2023-07-29T00:37:33;11.30;;;6.47;;
69979;SDS011;57318;56.232;43.944;2023-07-29T00:39:59;9.77;;;6.23;;
69979;SDS011;57318;56.232;43.944;2023-07-29T00:42:24;9.10;;;6.80;;
69979;SDS011;57318;56.232;43.944;2023-07-29T00:44:50;10.07;;;6.40;;
69979;SDS011;57318;56.232;43.944;2023-07-29T00:47:16;13.50;;;6.80;;
69979;SDS011;57318;56.232;43.944;2023-07-29T00:49:43;10.00;;;6.95;;
69979;SDS011;57318;56.232;43.944;2023-07-29T00:52:10;8.48;;;6.30;;
69979;SDS011;57318;56.232;43.944;2023-07-29T00:54:40;7.82;;;6.20;;
69979;SDS011;57318;56.232;43.944;2023-07-29T00:57:09;11.20;;;6.60;;
69979;SDS011;57318;56.232;43.944;2023-07-29T00:59:38;7.63;;;6.70;;
69979;SDS011;57318;56.232;43.944;2023-07-29T01:02:05;11.70;;;6.75;;
69979;SDS011;57318;56.232;43.944;2023-07-29T01:04:31;12.57;;;7.10;;
69979;SDS011;57318;56.232;43.944;2023-07-29T01:07:00;9.40;;;7.60;;
69979;SDS011;57318;56.232;43.944;2023-07-29T01:12:27;12.43;;;7.63;;
69979;SDS011;57318;56.232;43.944;2023-07-29T01:17:42;10.35;;;7.00;;
69979;SDS011;57318;56.232;43.944;2023-07-29T01:20:13;13.52;;;7.65;;
69979;SDS011;57318;56.232;43.944;2023-07-29T01:22:42;11.48;;;7.78;;
69979;SDS011;57318;56.232;43.944;2023-07-29T01:25:09;10.57;;;7.80;;
69979;SDS011;57318;56.232;43.944;2023-07-29T01:27:35;12.45;;;7.30;;
69979;SDS011;57318;56.232;43.944;2023-07-29T01:30:01;9.27;;;6.75;;
69979;SDS011;57318;56.232;43.944;2023-07-29T01:32:36;7.93;;;6.50;;
69979;SDS011;57318;56.232;43.944;2023-07-29T01:35:17;11.15;;;7.15;;
69979;SDS011;57318;56.232;43.944;2023-07-29T01:37:49;12.15;;;7.07;;
69979;SDS011;57318;56.232;43.944;2023-07-29T01:40:18;12.45;;;7.03;;
69979;SDS011;57318;56.232;43.944;2023-07-29T01:42:47;10.50;;;7.38;;
69979;SDS011;57318;56.232;43.944;2023-07-29T01:45:12;12.63;;;6.95;;
69979;SDS011;57318;56.232;43.944;2023-07-29T01:47:38;14.73;;;6.33;;
69979;SDS011;57318;56.232;43.944;2023-07-29T01:50:06;10.07;;;6.45;;
69979;SDS011;57318;56.232;43.944;2023-07-29T01:52:33;9.45;;;6.75;;
69979;SDS011;57318;56.232;43.944;2023-07-29T01:54:59;8.77;;;6.25;;
69979;SDS011;57318;56.232;43.944;2023-07-29T01:57:24;8.27;;;6.50;;
69979;SDS011;57318;56.232;43.944;2023-07-29T01:59:50;8.87;;;6.33;;
69979;SDS011;57318;56.232;43.944;2023-07-29T02:02:16;8.13;;;6.80;;
69979;SDS011;57318;56.232;43.944;2023-07-29T02:04:41;9.30;;;5.93;;
69979;SDS011;57318;56.232;43.944;2023-07-29T02:07:07;8.43;;;5.85;;
69979;SDS011;57318;56.232;43.944;2023-07-29T02:09:33;9.37;;;5.57;;
69979;SDS011;57318;56.232;43.944;2023-07-29T02:11:59;11.40;;;5.60;;
69979;SDS011;57318;56.232;43.944;2023-07-29T02:14:24;9.80;;;5.60;;
69979;SDS011;57318;56.232;43.944;2023-07-29T02:16:50;6.20;;;4.93;;
69979;SDS011;57318;56.232;43.944;2023-07-29T02:19:36;7.47;;;5.38;;
69979;SDS011;57318;56.232;43.944;2023-07-29T02:22:01;6.78;;;5.18;;
69979;SDS011;57318;56.232;43.944;2023-07-29T02:24:27;6.88;;;5.50;;
69979;SDS011;57318;56.232;43.944;2023-07-29T02:26:53;10.70;;;5.85;;
69979;SDS011;57318;56.232;43.944;2023-07-29T02:29:19;8.27;;;6.00;;
69979;SDS011;57318;56.232;43.944;2023-07-29T02:31:45;6.88;;;5.00;;
69979;SDS011;57318;56.232;43.944;2023-07-29T02:34:13;7.72;;;5.43;;
69979;SDS011;57318;56.232;43.944;2023-07-29T02:36:39;8.43;;;5.80;;
69979;SDS011;57318;56.232;43.944;2023-07-29T02:39:04;9.70;;;5.72;;
69979;SDS011;57318;56.232;43.944;2023-07-29T02:41:31;10.80;;;6.10;;
69979;SDS011;57318;56.232;43.944;2023-07-29T02:43:56;13.57;;;6.43;;
69979;SDS011;57318;56.232;43.944;2023-07-29T02:46:22;11.83;;;6.37;;
69979;SDS011;57318;56.232;43.944;2023-07-29T02:48:48;11.02;;;6.90;;
69979;SDS011;57318;56.232;43.944;2023-07-29T02:51:14;10.05;;;5.60;;
69979;SDS011;57318;56.232;43.944;2023-07-29T02:53:40;11.50;;;5.97;;
69979;SDS011;57318;56.232;43.944;2023-07-29T02:56:06;8.63;;;5.63;;
69979;SDS011;57318;56.232;43.944;2023-07-29T02:58:34;8.10;;;5.60;;
69979;SDS011;57318;56.232;43.944;2023-07-29T03:01:00;8.85;;;5.85;;
69979;SDS011;57318;56.232;43.944;2023-07-29T03:03:28;8.38;;;5.68;;
69979;SDS011;57318;56.232;43.944;2023-07-29T03:05:58;11.07;;;5.65;;
69979;SDS011;57318;56.232;43.944;2023-07-29T03:08:28;8.52;;;5.90;;
69979;SDS011;57318;56.232;43.944;2023-07-29T03:10:55;9.80;;;5.53;;
69979;SDS011;57318;56.232;43.944;2023-07-29T03:13:21;10.38;;;5.65;;
69979;SDS011;57318;56.232;43.944;2023-07-29T03:15:47;11.47;;;6.17;;
69979;SDS011;57318;56.232;43.944;2023-07-29T03:18:12;8.67;;;5.60;;
69979;SDS011;57318;56.232;43.944;2023-07-29T03:20:38;9.07;;;6.10;;
69979;SDS011;57318;56.232;43.944;2023-07-29T03:23:04;8.90;;;5.80;;
69979;SDS011;57318;56.232;43.944;2023-07-29T03:25:29;6.85;;;4.95;;
69979;SDS011;57318;56.232;43.944;2023-07-29T03:27:55;8.98;;;6.25;;
69979;SDS011;57318;56.232;43.944;2023-07-29T03:30:21;10.93;;;6.57;;
69979;SDS011;57318;56.232;43.944;2023-07-29T03:32:47;10.40;;;6.43;;
69979;SDS011;57318;56.232;43.944;2023-07-29T03:35:14;9.48;;;6.20;;
69979;SDS011;57318;56.232;43.944;2023-07-29T03:37:40;9.68;;;5.95;;
69979;SDS011;57318;56.232;43.944;2023-07-29T03:40:06;14.48;;;6.60;;
69979;SDS011;57318;56.232;43.944;2023-07-29T03:42:32;9.45;;;6.53;;
69979;SDS011;57318;56.232;43.944;2023-07-29T03:47:24;8.98;;;6.88;;
69979;SDS011;57318;56.232;43.944;2023-07-29T03:49:50;8.27;;;5.40;;
69979;SDS011;57318;56.232;43.944;2023-07-29T03:52:15;11.63;;;6.03;;
69979;SDS011;57318;56.232;43.944;2023-07-29T03:54:41;9.00;;;6.00;;
69979;SDS011;57318;56.232;43.944;2023-07-29T03:57:07;9.97;;;5.80;;
69979;SDS011;57318;56.232;43.944;2023-07-29T03:59:32;12.27;;;6.93;;
69979;SDS011;57318;56.232;43.944;2023-07-29T04:01:58;10.35;;;6.97;;
69979;SDS011;57318;56.232;43.944;2023-07-29T04:04:24;10.17;;;6.97;;
69979;SDS011;57318;56.232;43.944;2023-07-29T04:06:50;11.48;;;6.90;;
69979;SDS011;57318;56.232;43.944;2023-07-29T04:09:16;12.90;;;6.72;;
69979;SDS011;57318;56.232;43.944;2023-07-29T04:11:41;10.13;;;6.82;;
69979;SDS011;57318;56.232;43.944;2023-07-29T04:14:07;10.02;;;6.40;;
69979;SDS011;57318;56.232;43.944;2023-07-29T04:16:33;8.85;;;6.85;;
69979;SDS011;57318;56.232;43.944;2023-07-29T04:18:58;7.23;;;6.33;;
69979;SDS011;57318;56.232;43.944;2023-07-29T04:21:24;11.77;;;6.55;;
69979;SDS011;57318;56.232;43.944;2023-07-29T04:23:51;10.63;;;6.45;;
69979;SDS011;57318;56.232;43.944;2023-07-29T04:26:16;12.07;;;6.60;;
69979;SDS011;57318;56.232;43.944;2023-07-29T04:28:42;9.90;;;6.60;;
69979;SDS011;57318;56.232;43.944;2023-07-29T04:31:08;11.38;;;6.55;;
69979;SDS011;57318;56.232;43.944;2023-07-29T04:33:34;11.30;;;6.50;;
69979;SDS011;57318;56.232;43.944;2023-07-29T04:35:59;9.57;;;6.83;;
69979;SDS011;57318;56.232;43.944;2023-07-29T04:38:29;10.35;;;6.45;;
69979;SDS011;57318;56.232;43.944;2023-07-29T04:40:56;10.07;;;6.53;;
69979;SDS011;57318;56.232;43.944;2023-07-29T04:43:22;9.80;;;5.97;;
69979;SDS011;57318;56.232;43.944;2023-07-29T04:45:48;12.13;;;6.30;;
69979;SDS011;57318;56.232;43.944;2023-07-29T04:48:13;8.43;;;6.10;;
69979;SDS011;57318;56.232;43.944;2023-07-29T04:50:39;7.43;;;5.25;;
69979;SDS011;57318;56.232;43.944;2023-07-29T04:53:06;12.40;;;5.95;;
69979;SDS011;57318;56.232;43.944;2023-07-29T04:55:31;8.65;;;5.78;;
69979;SDS011;57318;56.232;43.944;2023-07-29T04:57:57;11.55;;;5.78;;
69979;SDS011;57318;56.232;43.944;2023-07-29T05:00:24;9.02;;;5.75;;
69979;SDS011;57318;56.232;43.944;2023-07-29T05:02:50;9.07;;;6.07;;
69979;SDS011;57318;56.232;43.944;2023-07-29T05:05:16;8.02;;;6.45;;
69979;SDS011;57318;56.232;43.944;2023-07-29T05:07:42;7.70;;;6.03;;
69979;SDS011;57318;56.232;43.944;2023-07-29T05:10:08;9.10;;;5.50;;
69979;SDS011;57318;56.232;43.944;2023-07-29T05:12:34;8.35;;;6.22;;
69979;SDS011;57318;56.232;43.944;2023-07-29T05:15:00;8.52;;;5.78;;
69979;SDS011;57318;56.232;43.944;2023-07-29T05:17:25;8.93;;;5.78;;
69979;SDS011;57318;56.232;43.944;2023-07-29T05:19:51;8.93;;;5.97;;
69979;SDS011;57318;56.232;43.944;2023-07-29T05:22:17;9.85;;;5.45;;
69979;SDS011;57318;56.232;43.944;2023-07-29T05:24:43;14.13;;;5.82;;
69979;SDS011;57318;56.232;43.944;2023-07-29T05:27:10;14.07;;;6.35;;
69979;SDS011;57318;56.232;43.944;2023-07-29T05:29:36;10.13;;;5.75;;
69979;SDS011;57318;56.232;43.944;2023-07-29T05:32:02;12.68;;;6.22;;
69979;SDS011;57318;56.232;43.944;2023-07-29T05:34:28;11.80;;;6.20;;
69979;SDS011;57318;56.232;43.944;2023-07-29T05:36:53;8.75;;;6.00;;
69979;SDS011;57318;56.232;43.944;2023-07-29T05:39:19;9.93;;;6.53;;
69979;SDS011;57318;56.232;43.944;2023-07-29T05:41:45;9.75;;;6.20;;
69979;SDS011;57318;56.232;43.944;2023-07-29T05:44:11;9.80;;;6.25;;
69979;SDS011;57318;56.232;43.944;2023-07-29T05:46:37;11.55;;;6.63;;
69979;SDS011;57318;56.232;43.944;2023-07-29T05:49:03;10.43;;;6.72;;
69979;SDS011;57318;56.232;43.944;2023-07-29T05:51:28;10.18;;;6.57;;
69979;SDS011;57318;56.232;43.944;2023-07-29T05:53:54;10.15;;;6.25;;
69979;SDS011;57318;56.232;43.944;2023-07-29T05:56:20;9.27;;;6.18;;
69979;SDS011;57318;56.232;43.944;2023-07-29T05:58:46;8.73;;;6.22;;
69979;SDS011;57318;56.232;43.944;2023-07-29T06:01:14;8.45;;;6.15;;
69979;SDS011;57318;56.232;43.944;2023-07-29T06:03:40;10.25;;;6.25;;
69979;SDS011;57318;56.232;43.944;2023-07-29T06:06:05;10.00;;;6.13;;
69979;SDS011;57318;56.232;43.944;2023-07-29T06:08:31;9.93;;;6.75;;
69979;SDS011;57318;56.232;43.944;2023-07-29T06:10:59;8.00;;;6.28;;
69979;SDS011;57318;56.232;43.944;2023-07-29T06:13:26;9.52;;;6.65;;
69979;SDS011;57318;56.232;43.944;2023-07-29T06:15:51;8.75;;;7.07;;
69979;SDS011;57318;56.232;43.944;2023-07-29T06:18:17;9.88;;;7.00;;
69979;SDS011;57318;56.232;43.944;2023-07-29T06:20:43;9.02;;;6.55;;
69979;SDS011;57318;56.232;43.944;2023-07-29T06:23:08;10.70;;;6.68;;
69979;SDS011;57318;56.232;43.944;2023-07-29T06:25:34;12.00;;;6.97;;
69979;SDS011;57318;56.232;43.944;2023-07-29T06:28:00;9.25;;;6.63;;
69979;SDS011;57318;56.232;43.944;2023-07-29T06:30:25;11.70;;;6.75;;
69979;SDS011;57318;56.232;43.944;2023-07-29T06:32:51;11.38;;;7.38;;
69979;SDS011;57318;56.232;43.944;2023-07-29T06:35:17;11.50;;;6.93;;
69979;SDS011;57318;56.232;43.944;2023-07-29T06:37:42;10.13;;;6.60;;
69979;SDS011;57318;56.232;43.944;2023-07-29T06:40:08;14.20;;;6.95;;
69979;SDS011;57318;56.232;43.944;2023-07-29T06:42:34;11.35;;;6.68;;
69979;SDS011;57318;56.232;43.944;2023-07-29T06:45:02;16.48;;;7.45;;
69979;SDS011;57318;56.232;43.944;2023-07-29T06:47:30;10.55;;;7.30;;
69979;SDS011;57318;56.232;43.944;2023-07-29T06:49:56;13.95;;;7.30;;
69979;SDS011;57318;56.232;43.944;2023-07-29T06:52:21;20.25;;;7.20;;
69979;SDS011;57318;56.232;43.944;2023-07-29T06:54:47;9.43;;;7.25;;
69979;SDS011;57318;56.232;43.944;2023-07-29T06:59:39;12.35;;;7.22;;
69979;SDS011;57318;56.232;43.944;2023-07-29T07:02:06;10.55;;;6.75;;
69979;SDS011;57318;56.232;43.944;2023-07-29T07:04:32;12.82;;;6.57;;
69979;SDS011;57318;56.232;43.944;2023-07-29T07:06:58;13.60;;;6.50;;
69979;SDS011;57318;56.232;43.944;2023-07-29T07:09:23;9.10;;;5.97;;
69979;SDS011;57318;56.232;43.944;2023-07-29T07:11:49;7.00;;;6.30;;
69979;SDS011;57318;56.232;43.944;2023-07-29T07:14:15;10.57;;;7.10;;
69979;SDS011;57318;56.232;43.944;2023-07-29T07:16:41;9.35;;;6.28;;
69979;SDS011;57318;56.232;43.944;2023-07-29T07:19:06;8.48;;;6.30;;
69979;SDS011;57318;56.232;43.944;2023-07-29T07:21:32;11.93;;;6.60;;
69979;SDS011;57318;56.232;43.944;2023-07-29T07:23:58;8.05;;;6.45;;
69979;SDS011;57318;56.232;43.944;2023-07-29T07:26:23;12.10;;;6.85;;
69979;SDS011;57318;56.232;43.944;2023-07-29T07:28:49;10.73;;;6.53;;
69979;SDS011;57318;56.232;43.944;2023-07-29T07:31:16;7.18;;;6.40;;
69979;SDS011;57318;56.232;43.944;2023-07-29T07:33:42;11.45;;;6.40;;
69979;SDS011;57318;56.232;43.944;2023-07-29T07:36:08;8.60;;;6.57;;
69979;SDS011;57318;56.232;43.944;2023-07-29T07:38:33;8.73;;;6.22;;
69979;SDS011;57318;56.232;43.944;2023-07-29T07:40:59;9.90;;;6.90;;
69979;SDS011;57318;56.232;43.944;2023-07-29T07:43:25;9.23;;;6.82;;
69979;SDS011;57318;56.232;43.944;2023-07-29T07:45:51;10.63;;;6.80;;
69979;SDS011;57318;56.232;43.944;2023-07-29T07:48:22;10.88;;;6.97;;
69979;SDS011;57318;56.232;43.944;2023-07-29T07:50:48;11.45;;;6.80;;
69979;SDS011;57318;56.232;43.944;2023-07-29T07:53:14;12.45;;;6.15;;
69979;SDS011;57318;56.232;43.944;2023-07-29T07:55:39;10.30;;;6.53;;
69979;SDS011;57318;56.232;43.944;2023-07-29T07:58:06;8.38;;;6.68;;
69979;SDS011;57318;56.232;43.944;2023-07-29T08:00:32;10.30;;;6.63;;
69979;SDS011;57318;56.232;43.944;2023-07-29T08:02:57;8.95;;;6.97;;
69979;SDS011;57318;56.232;43.944;2023-07-29T08:05:23;14.43;;;6.65;;
69979;SDS011;57318;56.232;43.944;2023-07-29T08:07:49;8.57;;;6.05;;
69979;SDS011;57318;56.232;43.944;2023-07-29T08:10:14;6.47;;;5.88;;
69979;SDS011;57318;56.232;43.944;2023-07-29T08:12:40;8.23;;;6.43;;
69979;SDS011;57318;56.232;43.944;2023-07-29T08:15:06;9.25;;;6.57;;
69979;SDS011;57318;56.232;43.944;2023-07-29T08:17:32;8.35;;;5.93;;
69979;SDS011;57318;56.232;43.944;2023-07-29T08:19:58;8.55;;;6.32;;
69979;SDS011;57318;56.232;43.944;2023-07-29T08:22:23;7.38;;;5.85;;
69979;SDS011;57318;56.232;43.944;2023-07-29T08:24:49;10.38;;;6.57;;
69979;SDS011;57318;56.232;43.944;2023-07-29T08:27:15;7.75;;;6.78;;
69979;SDS011;57318;56.232;43.944;2023-07-29T08:29:40;11.65;;;6.50;;
69979;SDS011;57318;56.232;43.944;2023-07-29T08:32:06;10.38;;;6.20;;
69979;SDS011;57318;56.232;43.944;2023-07-29T08:34:32;7.10;;;6.40;;
69979;SDS011;57318;56.232;43.944;2023-07-29T08:36:58;10.02;;;6.40;;
69979;SDS011;57318;56.232;43.944;2023-07-29T08:39:25;9.55;;;6.68;;
69979;SDS011;57318;56.232;43.944;2023-07-29T08:44:23;13.90;;;6.50;;
69979;SDS011;57318;56.232;43.944;2023-07-29T08:46:52;8.15;;;6.40;;
69979;SDS011;57318;56.232;43.944;2023-07-29T08:49:19;8.82;;;6.85;;
69979;SDS011;57318;56.232;43.944;2023-07-29T08:51:48;7.65;;;6.95;;
69979;SDS011;57318;56.232;43.944;2023-07-29T08:54:15;8.63;;;6.50;;
69979;SDS011;57318;56.232;43.944;2023-07-29T08:56:41;11.02;;;6.90;;
69979;SDS011;57318;56.232;43.944;2023-07-29T08:59:10;9.30;;;6.72;;
69979;SDS011;57318;56.232;43.944;2023-07-29T09:01:41;7.82;;;7.00;;
69979;SDS011;57318;56.232;43.944;2023-07-29T09:04:07;9.13;;;7.82;;
69979;SDS011;57318;56.232;43.944;2023-07-29T09:06:33;8.55;;;6.72;;
69979;SDS011;57318;56.232;43.944;2023-07-29T09:09:01;11.00;;;7.00;;
69979;SDS011;57318;56.232;43.944;2023-07-29T09:11:27;10.85;;;6.47;;
69979;SDS011;57318;56.232;43.944;2023-07-29T09:13:53;8.35;;;6.35;;
69979;SDS011;57318;56.232;43.944;2023-07-29T09:16:19;8.00;;;7.05;;
69979;SDS011;57318;56.232;43.944;2023-07-29T09:18:49;7.50;;;6.78;;
69979;SDS011;57318;56.232;43.944;2023-07-29T09:21:17;9.35;;;6.38;;
69979;SDS011;57318;56.232;43.944;2023-07-29T09:23:43;11.07;;;7.13;;
69979;SDS011;57318;56.232;43.944;2023-07-29T09:26:10;9.35;;;6.80;;
69979;SDS011;57318;56.232;43.944;2023-07-29T09:28:37;7.65;;;6.38;;
69979;SDS011;57318;56.232;43.944;2023-07-29T09:31:04;6.68;;;5.97;;
69979;SDS011;57318;56.232;43.944;2023-07-29T09:33:34;6.72;;;6.18;;
69979;SDS011;57318;56.232;43.944;2023-07-29T09:36:03;9.55;;;6.50;;
69979;SDS011;57318;56.232;43.944;2023-07-29T09:38:37;8.40;;;6.18;;
69979;SDS011;57318;56.232;43.944;2023-07-29T09:41:03;6.97;;;5.68;;
69979;SDS011;57318;56.232;43.944;2023-07-29T09:43:30;6.15;;;5.55;;
69979;SDS011;57318;56.232;43.944;2023-07-29T09:46:03;6.32;;;5.63;;
69979;SDS011;57318;56.232;43.944;2023-07-29T09:48:33;6.20;;;5.60;;
69979;SDS011;57318;56.232;43.944;2023-07-29T09:51:10;8.13;;;5.43;;
69979;SDS011;57318;56.232;43.944;2023-07-29T09:53:41;7.68;;;5.45;;
69979;SDS011;57318;56.232;43.944;2023-07-29T09:56:08;5.68;;;5.07;;
69979;SDS011;57318;56.232;43.944;2023-07-29T09:58:34;6.80;;;5.10;;
69979;SDS011;57318;56.232;43.944;2023-07-29T10:01:03;8.80;;;5.40;;
69979;SDS011;57318;56.232;43.944;2023-07-29T10:03:32;8.35;;;5.53;;
69979;SDS011;57318;56.232;43.944;2023-07-29T10:06:00;12.10;;;6.10;;
69979;SDS011;57318;56.232;43.944;2023-07-29T10:10:33;6.72;;;5.60;;
69979;SDS011;57318;56.232;43.944;2023-07-29T10:12:58;9.23;;;5.78;;
69979;SDS011;57318;56.232;43.944;2023-07-29T10:15:27;6.32;;;5.53;;
69979;SDS011;57318;56.232;43.944;2023-07-29T10:17:54;15.45;;;4.78;;
69979;SDS011;57318;56.232;43.944;2023-07-29T10:20:20;32.75;;;5.63;;
69979;SDS011;57318;56.232;43.944;2023-07-29T10:22:46;17.85;;;4.43;;
69979;SDS011;57318;56.232;43.944;2023-07-29T10:25:16;17.85;;;4.50;;
69979;SDS011;57318;56.232;43.944;2023-07-29T10:27:44;0.35;;;0.35;;
69979;SDS011;57318;56.232;43.944;2023-07-29T10:30:14;0.50;;;0.50;;
69979;SDS011;57318;56.232;43.944;2023-07-29T10:32:43;0.40;;;0.40;;
69979;SDS011;57318;56.232;43.944;2023-07-29T10:35:11;0.30;;;0.30;;
69979;SDS011;57318;56.232;43.944;2023-07-29T10:37:38;0.55;;;0.55;;
69979;SDS011;57318;56.232;43.944;2023-07-29T10:40:08;0.38;;;0.38;;
69979;SDS011;57318;56.232;43.944;2023-07-29T10:42:37;0.90;;;0.77;;
69979;SDS011;57318;56.232;43.944;2023-07-29T10:45:19;0.38;;;0.38;;
69979;SDS011;57318;56.232;43.944;2023-07-29T10:47:47;0.90;;;0.70;;
69979;SDS011;57318;56.232;43.944;2023-07-29T10:50:17;0.55;;;0.55;;
69979;SDS011;57318;56.232;43.944;2023-07-29T10:52:46;0.40;;;0.40;;
69979;SDS011;57318;56.232;43.944;2023-07-29T10:58:08;0.82;;;0.82;;
69979;SDS011;57318;56.232;43.944;2023-07-29T11:00:41;0.38;;;0.38;;
69979;SDS011;57318;56.232;43.944;2023-07-29T11:03:08;0.40;;;0.40;;
69979;SDS011;57318;56.232;43.944;2023-07-29T11:08:19;0.95;;;0.60;;
69979;SDS011;57318;56.232;43.944;2023-07-29T11:13:37;0.47;;;0.47;;
69979;SDS011;57318;56.232;43.944;2023-07-29T11:16:04;0.60;;;0.60;;
69979;SDS011;57318;56.232;43.944;2023-07-29T11:20:57;1.00;;;0.85;;
69979;SDS011;57318;56.232;43.944;2023-07-29T11:23:27;1.10;;;1.05;;
69979;SDS011;57318;56.232;43.944;2023-07-29T11:25:54;0.65;;;0.65;;
69979;SDS011;57318;56.232;43.944;2023-07-29T11:28:20;0.32;;;0.32;;
69979;SDS011;57318;56.232;43.944;2023-07-29T11:33:16;0.40;;;0.40;;
69979;SDS011;57318;56.232;43.944;2023-07-29T11:35:44;0.55;;;0.55;;
69979;SDS011;57318;56.232;43.944;2023-07-29T11:38:14;0.40;;;0.40;;
69979;SDS011;57318;56.232;43.944;2023-07-29T11:40:40;0.73;;;0.73;;
69979;SDS011;57318;56.232;43.944;2023-07-29T11:43:06;3.97;;;1.70;;
69979;SDS011;57318;56.232;43.944;2023-07-29T11:45:31;6.00;;;4.30;;
69979;SDS011;57318;56.232;43.944;2023-07-29T11:48:00;6.20;;;4.60;;
69979;SDS011;57318;56.232;43.944;2023-07-29T11:50:26;5.68;;;4.28;;
69979;SDS011;57318;56.232;43.944;2023-07-29T11:52:52;8.77;;;4.32;;
69979;SDS011;57318;56.232;43.944;2023-07-29T11:55:19;7.05;;;4.00;;
69979;SDS011;57318;56.232;43.944;2023-07-29T11:57:45;5.50;;;3.35;;
69979;SDS011;57318;56.232;43.944;2023-07-29T12:00:16;6.60;;;3.67;;
69979;SDS011;57318;56.232;43.944;2023-07-29T12:05:20;4.85;;;3.33;;
69979;SDS011;57318;56.232;43.944;2023-07-29T12:07:48;5.50;;;3.25;;
69979;SDS011;57318;56.232;43.944;2023-07-29T12:10:14;4.82;;;3.60;;
69979;SDS011;57318;56.232;43.944;2023-07-29T12:12:44;4.90;;;3.20;;
69979;SDS011;57318;56.232;43.944;2023-07-29T12:15:10;5.75;;;3.60;;
69979;SDS011;57318;56.232;43.944;2023-07-29T12:17:40;5.50;;;3.42;;
69979;SDS011;57318;56.232;43.944;2023-07-29T12:20:08;4.72;;;3.08;;
69979;SDS011;57318;56.232;43.944;2023-07-29T12:22:36;4.65;;;2.70;;
69979;SDS011;57318;56.232;43.944;2023-07-29T12:25:02;5.13;;;3.33;;
69979;SDS011;57318;56.232;43.944;2023-07-29T12:27:31;8.75;;;6.90;;
69979;SDS011;57318;56.232;43.944;2023-07-29T12:29:57;6.30;;;4.75;;
69979;SDS011;57318;56.232;43.944;2023-07-29T12:32:25;4.95;;;4.18;;
69979;SDS011;57318;56.232;43.944;2023-07-29T12:34:53;6.53;;;4.18;;
69979;SDS011;57318;56.232;43.944;2023-07-29T12:37:19;10.23;;;4.38;;
69979;SDS011;57318;56.232;43.944;2023-07-29T12:39:44;9.23;;;5.40;;
69979;SDS011;57318;56.232;43.944;2023-07-29T12:42:10;9.40;;;4.93;;
69979;SDS011;57318;56.232;43.944;2023-07-29T12:44:37;8.30;;;4.60;;
69979;SDS011;57318;56.232;43.944;2023-07-29T12:47:04;9.48;;;5.43;;
69979;SDS011;57318;56.232;43.944;2023-07-29T12:49:31;10.68;;;5.60;;
69979;SDS011;57318;56.232;43.944;2023-07-29T12:51:58;11.48;;;5.80;;
69979;SDS011;57318;56.232;43.944;2023-07-29T12:54:24;14.88;;;6.40;;
69979;SDS011;57318;56.232;43.944;2023-07-29T12:56:53;12.38;;;7.22;;
69979;SDS011;57318;56.232;43.944;2023-07-29T12:59:18;16.13;;;7.68;;
69979;SDS011;57318;56.232;43.944;2023-07-29T13:01:44;18.58;;;7.93;;
69979;SDS011;57318;56.232;43.944;2023-07-29T13:04:10;15.82;;;7.60;;
69979;SDS011;57318;56.232;43.944;2023-07-29T13:06:37;13.95;;;7.43;;
69979;SDS011;57318;56.232;43.944;2023-07-29T13:09:03;12.68;;;7.35;;
69979;SDS011;57318;56.232;43.944;2023-07-29T13:11:31;11.02;;;7.40;;
69979;SDS011;57318;56.232;43.944;2023-07-29T13:14:00;14.77;;;7.70;;
69979;SDS011;57318;56.232;43.944;2023-07-29T13:18:52;17.38;;;10.88;;
69979;SDS011;57318;56.232;43.944;2023-07-29T13:21:18;26.55;;;14.50;;
69979;SDS011;57318;56.232;43.944;2023-07-29T13:23:44;20.93;;;13.50;;
69979;SDS011;57318;56.232;43.944;2023-07-29T13:26:09;23.93;;;14.93;;
69979;SDS011;57318;56.232;43.944;2023-07-29T13:28:36;21.95;;;14.65;;
69979;SDS011;57318;56.232;43.944;2023-07-29T13:31:02;23.77;;;14.25;;
69979;SDS011;57318;56.232;43.944;2023-07-29T13:35:59;21.77;;;14.23;;
69979;SDS011;57318;56.232;43.944;2023-07-29T13:38:29;16.85;;;11.07;;
69979;SDS011;57318;56.232;43.944;2023-07-29T13:43:21;14.48;;;8.70;;
69979;SDS011;57318;56.232;43.944;2023-07-29T13:45:47;11.93;;;7.75;;
69979;SDS011;57318;56.232;43.944;2023-07-29T13:48:14;12.23;;;8.38;;
69979;SDS011;57318;56.232;43.944;2023-07-29T13:50:40;12.85;;;7.50;;
69979;SDS011;57318;56.232;43.944;2023-07-29T13:53:08;12.98;;;6.78;;
69979;SDS011;57318;56.232;43.944;2023-07-29T13:55:34;12.50;;;6.82;;
69979;SDS011;57318;56.232;43.944;2023-07-29T13:57:59;12.43;;;6.20;;
69979;SDS011;57318;56.232;43.944;2023-07-29T14:00:25;14.88;;;5.60;;
69979;SDS011;57318;56.232;43.944;2023-07-29T14:02:51;9.68;;;5.47;;
69979;SDS011;57318;56.232;43.944;2023-07-29T14:05:17;9.93;;;5.43;;
69979;SDS011;57318;56.232;43.944;2023-07-29T14:07:42;8.87;;;4.83;;
69979;SDS011;57318;56.232;43.944;2023-07-29T14:10:08;15.03;;;4.97;;
69979;SDS011;57318;56.232;43.944;2023-07-29T14:12:34;7.82;;;4.20;;
69979;SDS011;57318;56.232;43.944;2023-07-29T14:15:00;11.43;;;4.53;;
69979;SDS011;57318;56.232;43.944;2023-07-29T14:17:26;12.30;;;4.15;;
69979;SDS011;57318;56.232;43.944;2023-07-29T14:19:52;6.32;;;3.90;;
69979;SDS011;57318;56.232;43.944;2023-07-29T14:22:17;7.55;;;3.78;;
69979;SDS011;57318;56.232;43.944;2023-07-29T14:24:43;10.80;;;4.15;;
69979;SDS011;57318;56.232;43.944;2023-07-29T14:27:09;7.30;;;3.95;;
69979;SDS011;57318;56.232;43.944;2023-07-29T14:29:34;7.30;;;3.88;;
69979;SDS011;57318;56.232;43.944;2023-07-29T14:32:00;7.03;;;3.80;;
69979;SDS011;57318;56.232;43.944;2023-07-29T14:34:26;10.93;;;4.20;;
69979;SDS011;57318;56.232;43.944;2023-07-29T14:36:52;12.18;;;5.20;;
69979;SDS011;57318;56.232;43.944;2023-07-29T14:39:17;11.00;;;4.57;;
69979;SDS011;57318;56.232;43.944;2023-07-29T14:41:43;9.30;;;4.80;;
69979;SDS011;57318;56.232;43.944;2023-07-29T14:44:09;13.30;;;4.70;;
69979;SDS011;57318;56.232;43.944;2023-07-29T14:46:35;14.05;;;5.35;;
69979;SDS011;57318;56.232;43.944;2023-07-29T14:49:00;13.13;;;4.72;;
69979;SDS011;57318;56.232;43.944;2023-07-29T14:51:26;10.30;;;4.88;;
69979;SDS011;57318;56.232;43.944;2023-07-29T14:53:52;7.75;;;4.50;;
69979;SDS011;57318;56.232;43.944;2023-07-29T14:56:17;8.65;;;5.57;;
69979;SDS011;57318;56.232;43.944;2023-07-29T14:58:44;12.75;;;5.93;;
69979;SDS011;57318;56.232;43.944;2023-07-29T15:01:11;14.60;;;5.32;;
69979;SDS011;57318;56.232;43.944;2023-07-29T15:03:37;10.00;;;5.43;;